Time;durP1;ratioP1;P1;durP2;ratioP2;P2;SDS_P1;SDS_P2;PMS_P1;PMS_P2;Temp;Humidity;BMP_temperature;BMP_pressure;BME280_temperature;BME280_humidity;BME280_pressure;Samples;Min_cycle;Max_cycle;Signal;HPM_P1;HPM_P2
2024/04/08 00:01:56;;;;;;;6.70;1.60;;;15.00;81.90;;;;;;5060283;28;20040;-74
2024/04/08 00:04:22;;;;;;;5.30;1.90;;;15.00;81.90;;;;;;5058453;28;20085;-74
2024/04/08 00:06:47;;;;;;;3.45;1.42;;;14.90;82.00;;;;;;5053136;28;20487;-74
2024/04/08 00:09:13;;;;;;;2.67;1.40;;;14.90;82.00;;;;;;5063916;28;20064;-74
2024/04/08 00:11:39;;;;;;;4.40;1.67;;;15.00;82.00;;;;;;5059317;28;20536;-74
2024/04/08 00:14:05;;;;;;;3.08;1.55;;;14.90;82.10;;;;;;5058964;28;20056;-74
2024/04/08 00:16:30;;;;;;;5.18;1.80;;;14.90;82.30;;;;;;5052457;28;20126;-75
2024/04/08 00:18:56;;;;;;;3.42;1.33;;;14.90;82.30;;;;;;5058913;28;20037;-75
2024/04/08 00:21:22;;;;;;;4.28;1.60;;;14.90;82.30;;;;;;5055044;28;20870;-74
2024/04/08 00:23:48;;;;;;;4.63;1.67;;;14.80;82.50;;;;;;5058044;28;20045;-74
2024/04/08 00:26:13;;;;;;;4.28;2.05;;;14.90;82.60;;;;;;5061028;28;20044;-78
2024/04/08 00:28:40;;;;;;;2.45;1.50;;;14.80;82.50;;;;;;5056546;28;20051;-74
2024/04/08 00:31:07;;;;;;;4.70;1.65;;;14.80;82.60;;;;;;5062282;28;20028;-73
2024/04/08 00:33:34;;;;;;;4.47;2.03;;;14.80;82.70;;;;;;5055190;28;20045;-74
2024/04/08 00:36:00;;;;;;;4.57;2.13;;;14.80;82.80;;;;;;5061368;28;20044;-74
2024/04/08 00:38:26;;;;;;;3.60;1.80;;;14.80;82.90;;;;;;5062538;28;20047;-74
2024/04/08 00:40:52;;;;;;;4.30;1.70;;;14.70;83.00;;;;;;5049875;28;20036;-74
2024/04/08 00:43:18;;;;;;;3.58;1.52;;;14.80;83.20;;;;;;5062101;28;20428;-74
2024/04/08 00:45:46;;;;;;;3.65;1.70;;;14.70;83.20;;;;;;5061794;28;20060;-75
2024/04/08 00:48:13;;;;;;;4.80;2.17;;;14.70;83.40;;;;;;5056716;28;20113;-74
2024/04/08 00:50:44;;;;;;;5.70;1.88;;;14.60;83.60;;;;;;5060804;28;20714;-74
2024/04/08 00:53:11;;;;;;;4.00;2.17;;;14.60;83.70;;;;;;5053785;28;20028;-75
2024/04/08 00:55:38;;;;;;;4.40;1.90;;;14.60;83.90;;;;;;5061391;28;20803;-74
2024/04/08 00:58:04;;;;;;;4.93;1.95;;;14.50;84.00;;;;;;5061966;28;20060;-74
2024/04/08 01:00:30;;;;;;;3.33;1.90;;;14.50;84.20;;;;;;5054558;28;20021;-74
2024/04/08 01:02:58;;;;;;;3.85;1.80;;;14.40;84.40;;;;;;5060046;28;20389;-74
2024/04/08 01:05:24;;;;;;;4.43;1.90;;;14.40;84.50;;;;;;5060305;28;20063;-74
2024/04/08 01:07:50;;;;;;;4.03;2.03;;;14.40;84.50;;;;;;5054623;28;20128;-74
2024/04/08 01:10:17;;;;;;;4.82;2.00;;;14.30;84.80;;;;;;5062794;28;20120;-74
2024/04/08 01:12:43;;;;;;;5.10;2.00;;;14.30;84.90;;;;;;5057991;28;20021;-74
2024/04/08 01:15:08;;;;;;;6.13;2.10;;;14.30;84.90;;;;;;5060565;28;20024;-75
2024/04/08 01:17:34;;;;;;;4.82;1.80;;;14.30;85.00;;;;;;5039088;28;20032;-75
2024/04/08 01:20:00;;;;;;;5.05;1.90;;;14.20;84.90;;;;;;5063824;28;20028;-76
2024/04/08 01:22:30;;;;;;;3.65;1.85;;;14.20;85.10;;;;;;5078351;28;20440;-75
2024/04/08 01:25:04;;;;;;;4.93;1.75;;;14.10;85.20;;;;;;5062228;28;21167;-75
2024/04/08 01:27:29;;;;;;;5.82;2.17;;;14.10;85.30;;;;;;5061267;28;20028;-75
2024/04/08 01:29:55;;;;;;;5.68;2.22;;;14.00;85.50;;;;;;5060644;28;20039;-73
2024/04/08 01:32:21;;;;;;;4.93;2.00;;;14.00;85.60;;;;;;5062112;28;20443;-73
2024/04/08 01:34:46;;;;;;;4.45;1.90;;;14.00;85.80;;;;;;5060831;28;20059;-75
2024/04/08 01:37:12;;;;;;;5.18;2.35;;;13.90;85.90;;;;;;5059969;28;20032;-72
2024/04/08 01:39:38;;;;;;;7.35;2.15;;;13.90;85.90;;;;;;5062450;28;20135;-73
2024/04/08 01:42:03;;;;;;;3.88;2.03;;;13.80;86.00;;;;;;5060553;28;20449;-73
2024/04/08 01:44:29;;;;;;;5.32;2.00;;;13.80;86.10;;;;;;5059739;28;20033;-73
2024/04/08 01:46:55;;;;;;;6.13;2.28;;;13.70;86.20;;;;;;5061091;28;20043;-75
2024/04/08 01:49:20;;;;;;;4.30;2.05;;;13.70;86.40;;;;;;5050515;28;20147;-76
2024/04/08 01:51:46;;;;;;;4.40;2.15;;;13.60;86.50;;;;;;5060871;28;20040;-75
2024/04/08 01:54:12;;;;;;;5.30;2.35;;;13.60;86.70;;;;;;5059843;28;20110;-75
2024/04/08 01:56:39;;;;;;;5.82;2.30;;;13.60;86.80;;;;;;5040948;28;20063;-75
2024/04/08 01:59:04;;;;;;;4.35;2.03;;;13.60;87.00;;;;;;5063653;28;20047;-75
2024/04/08 02:01:30;;;;;;;6.57;2.05;;;13.60;87.00;;;;;;5060840;28;20563;-75
2024/04/08 02:03:56;;;;;;;4.15;2.20;;;13.60;87.00;;;;;;5059420;28;20036;-75
2024/04/08 02:06:21;;;;;;;4.50;2.20;;;13.50;87.10;;;;;;5061510;28;20110;-75
2024/04/08 02:08:47;;;;;;;6.03;2.33;;;13.50;87.10;;;;;;5060183;28;20116;-74
2024/04/08 02:11:12;;;;;;;5.18;2.10;;;13.50;87.20;;;;;;5058189;28;20111;-75
2024/04/08 02:13:38;;;;;;;5.03;2.50;;;13.40;87.30;;;;;;5051249;28;20214;-74
2024/04/08 02:16:07;;;;;;;5.88;2.50;;;13.40;87.40;;;;;;5061329;28;20041;-74
2024/04/08 02:18:33;;;;;;;5.57;2.15;;;13.30;87.40;;;;;;5062805;28;20036;-75
2024/04/08 02:20:59;;;;;;;5.47;2.25;;;13.30;87.50;;;;;;5057115;28;20028;-74
2024/04/08 02:23:25;;;;;;;4.72;2.42;;;13.30;87.60;;;;;;5060382;28;20562;-74
2024/04/08 02:25:51;;;;;;;6.30;2.55;;;13.20;87.80;;;;;;5059872;28;20040;-74
2024/04/08 02:28:16;;;;;;;8.88;2.95;;;13.20;87.90;;;;;;5054822;28;20423;-74
2024/04/08 02:30:42;;;;;;;6.05;3.08;;;13.10;87.80;;;;;;5068114;28;20093;-74
2024/04/08 02:33:08;;;;;;;7.15;3.55;;;13.10;87.80;;;;;;5060153;28;20157;-74
2024/04/08 02:35:37;;;;;;;7.60;3.55;;;13.10;87.90;;;;;;5056250;28;20366;-74
2024/04/08 02:38:04;;;;;;;6.88;3.70;;;13.00;88.10;;;;;;5060761;28;20037;-74
2024/04/08 02:40:33;;;;;;;7.18;3.63;;;13.00;88.40;;;;;;5059985;28;20025;-74
2024/04/08 02:43:03;;;;;;;6.85;3.63;;;13.00;88.50;;;;;;5056399;28;20040;-75
2024/04/08 02:45:29;;;;;;;8.10;3.40;;;13.00;88.50;;;;;;5059225;28;20033;-75
2024/04/08 02:47:57;;;;;;;7.22;3.08;;;12.90;88.70;;;;;;5059383;28;20040;-75
2024/04/08 02:50:23;;;;;;;7.32;3.33;;;12.90;88.80;;;;;;5060120;28;20020;-75
2024/04/08 02:52:49;;;;;;;8.02;3.30;;;12.90;88.90;;;;;;5053646;28;20039;-74
2024/04/08 02:55:14;;;;;;;5.78;3.00;;;12.90;89.00;;;;;;5056999;28;20138;-75
2024/04/08 02:57:40;;;;;;;6.63;2.97;;;12.80;89.20;;;;;;5058800;28;20044;-75
2024/04/08 03:00:06;;;;;;;7.22;3.13;;;12.80;89.30;;;;;;5057815;28;20573;-74
2024/04/08 03:02:32;;;;;;;6.53;2.97;;;12.70;89.40;;;;;;5059185;28;20477;-75
2024/04/08 03:04:57;;;;;;;9.57;3.38;;;12.70;89.50;;;;;;5059827;28;20031;-74
2024/04/08 03:07:23;;;;;;;7.15;3.35;;;12.70;89.40;;;;;;5057670;28;20037;-73
2024/04/08 03:09:52;;;;;;;8.43;3.33;;;12.60;89.50;;;;;;5058281;28;20072;-74
2024/04/08 03:12:18;;;;;;;8.88;3.20;;;12.60;89.90;;;;;;5057385;28;20032;-73
2024/04/08 03:14:43;;;;;;;9.45;3.30;;;12.60;89.90;;;;;;5050147;28;20048;-74
2024/04/08 03:17:09;;;;;;;7.18;3.38;;;12.60;90.20;;;;;;5060127;28;20146;-74
2024/04/08 03:19:35;;;;;;;6.65;3.58;;;12.60;90.20;;;;;;5059114;28;20638;-74
2024/04/08 03:22:00;;;;;;;6.90;3.92;;;12.60;90.20;;;;;;5045904;28;20077;-75
2024/04/08 03:24:29;;;;;;;5.78;3.35;;;12.60;90.20;;;;;;5058336;28;20060;-76
2024/04/08 03:26:55;;;;;;;6.68;3.42;;;12.60;90.30;;;;;;5052526;28;20048;-74
2024/04/08 03:29:21;;;;;;;7.95;3.45;;;12.60;90.40;;;;;;5059827;28;20116;-74
2024/04/08 03:31:47;;;;;;;6.20;3.28;;;12.60;90.50;;;;;;5057105;28;20139;-75
2024/04/08 03:34:13;;;;;;;7.32;3.60;;;12.60;90.60;;;;;;5059829;28;20052;-74
2024/04/08 03:36:38;;;;;;;6.97;3.72;;;12.60;90.70;;;;;;5060173;28;20047;-74
2024/04/08 03:39:04;;;;;;;7.38;3.33;;;12.60;90.70;;;;;;5057581;28;20119;-74
2024/04/08 03:41:30;;;;;;;8.85;3.50;;;12.60;90.80;;;;;;5056981;28;20036;-75
2024/04/08 03:43:56;;;;;;;7.88;3.63;;;12.60;90.80;;;;;;5058296;28;20127;-74
2024/04/08 03:46:22;;;;;;;6.13;3.40;;;12.60;90.80;;;;;;5057526;28;20163;-75
2024/04/08 03:48:48;;;;;;;7.82;3.67;;;12.60;90.80;;;;;;5058832;28;20036;-73
2024/04/08 03:51:15;;;;;;;6.90;3.22;;;12.50;90.90;;;;;;5055394;28;20025;-74
2024/04/08 03:53:41;;;;;;;8.98;3.83;;;12.50;91.00;;;;;;5058008;28;20025;-76
2024/04/08 03:56:11;;;;;;;9.15;3.80;;;12.60;91.00;;;;;;5059455;28;20126;-74
2024/04/08 03:58:41;;;;;;;9.95;3.90;;;12.50;91.10;;;;;;5056951;28;20029;-74
2024/04/08 04:01:09;;;;;;;8.75;3.60;;;12.60;91.10;;;;;;5059039;28;20112;-73
2024/04/08 04:03:36;;;;;;;8.32;3.97;;;12.50;91.20;;;;;;5058787;28;20040;-75
2024/04/08 04:06:02;;;;;;;10.43;4.95;;;12.50;91.20;;;;;;5062293;28;20032;-74
2024/04/08 04:08:28;;;;;;;10.18;4.93;;;12.50;91.30;;;;;;5057825;28;20117;-74
2024/04/08 04:10:55;;;;;;;10.80;4.78;;;12.50;91.40;;;;;;5055721;28;20440;-74
2024/04/08 04:13:21;;;;;;;11.65;5.43;;;12.40;91.50;;;;;;5059236;28;20120;-74
2024/04/08 04:15:46;;;;;;;12.05;5.57;;;12.40;91.60;;;;;;5061205;28;20115;-74
2024/04/08 04:18:12;;;;;;;9.45;5.10;;;12.40;91.70;;;;;;5041211;28;20040;-74
2024/04/08 04:20:42;;;;;;;14.30;5.72;;;12.40;91.60;;;;;;5061163;28;20029;-74
2024/04/08 04:23:11;;;;;;;12.13;5.55;;;12.40;91.70;;;;;;5061596;28;20123;-74
2024/04/08 04:25:37;;;;;;;11.95;5.55;;;12.30;91.90;;;;;;5059172;28;20059;-74
2024/04/08 04:28:04;;;;;;;13.57;6.57;;;12.30;91.90;;;;;;5061480;28;20040;-74
2024/04/08 04:30:29;;;;;;;12.38;6.00;;;12.30;91.90;;;;;;5063196;28;20079;-75
2024/04/08 04:33:00;;;;;;;12.75;6.90;;;12.30;92.00;;;;;;5060562;28;20040;-75
2024/04/08 04:35:29;;;;;;;16.02;6.90;;;12.30;92.00;;;;;;5061950;28;20024;-74
2024/04/08 04:37:55;;;;;;;14.00;7.28;;;12.20;92.00;;;;;;5053052;28;20101;-74
2024/04/08 04:40:21;;;;;;;12.23;6.38;;;12.20;92.20;;;;;;5062445;28;20377;-76
2024/04/08 04:42:47;;;;;;;13.77;6.55;;;12.20;92.20;;;;;;5053798;28;20181;-78
2024/04/08 04:45:13;;;;;;;15.63;6.80;;;12.10;92.20;;;;;;5057398;28;20726;-75
2024/04/08 04:47:39;;;;;;;12.65;6.00;;;12.10;92.20;;;;;;5057020;28;20037;-75
2024/04/08 04:50:05;;;;;;;14.27;7.53;;;12.10;92.30;;;;;;5058348;28;20441;-75
2024/04/08 04:52:31;;;;;;;14.05;6.70;;;12.10;92.40;;;;;;5056677;28;20124;-75
2024/04/08 04:54:57;;;;;;;15.48;6.65;;;12.10;92.30;;;;;;5059478;28;20206;-75
2024/04/08 04:57:23;;;;;;;15.38;6.28;;;12.10;92.30;;;;;;5062595;28;20115;-75
2024/04/08 04:59:49;;;;;;;13.10;6.05;;;12.10;92.30;;;;;;5060525;28;20041;-75
2024/04/08 05:02:14;;;;;;;13.18;6.00;;;12.10;92.40;;;;;;5062236;28;20445;-77
2024/04/08 05:04:41;;;;;;;11.93;6.38;;;12.10;92.40;;;;;;5059624;28;20107;-74
2024/04/08 05:07:07;;;;;;;11.07;5.85;;;12.00;92.40;;;;;;5059155;28;20098;-75
2024/04/08 05:09:32;;;;;;;11.15;5.68;;;12.10;92.40;;;;;;5060177;28;20094;-74
2024/04/08 05:11:58;;;;;;;12.60;5.53;;;12.00;92.40;;;;;;5070866;28;20471;-75
2024/04/08 05:14:24;;;;;;;12.05;5.88;;;12.00;92.50;;;;;;5061612;28;20048;-76
2024/04/08 05:16:50;;;;;;;12.68;6.15;;;12.00;92.50;;;;;;5060273;28;20039;-75
2024/04/08 05:19:15;;;;;;;11.52;6.32;;;12.10;92.50;;;;;;5059549;28;20053;-75
2024/04/08 05:21:43;;;;;;;11.80;5.47;;;12.10;92.40;;;;;;5057661;28;20110;-75
2024/04/08 05:24:08;;;;;;;13.18;5.70;;;12.10;92.30;;;;;;5059580;28;20029;-76
2024/04/08 05:26:34;;;;;;;11.63;5.68;;;12.10;92.30;;;;;;5041898;28;20049;-76
2024/04/08 05:29:00;;;;;;;12.68;5.32;;;12.10;92.20;;;;;;5062776;28;20039;-74
2024/04/08 05:31:26;;;;;;;10.82;5.05;;;12.10;92.20;;;;;;5060535;28;20648;-75
2024/04/08 05:33:51;;;;;;;10.55;5.30;;;12.10;92.10;;;;;;5061444;28;20048;-76
2024/04/08 05:36:17;;;;;;;11.85;6.18;;;12.10;92.10;;;;;;5062972;28;20044;-76
2024/04/08 05:40:00;;;;;;;10.73;5.03;;;12.20;92.00;;;;;;5339575;25;20774;-74
2024/04/08 05:42:26;;;;;;;8.98;4.65;;;12.20;91.90;;;;;;5338399;26;20005;-76
2024/04/08 05:44:51;;;;;;;11.45;4.95;;;12.30;91.80;;;;;;5311196;26;20405;-75
2024/04/08 05:47:17;;;;;;;10.85;5.45;;;12.30;91.70;;;;;;5304722;26;20432;-76
2024/04/08 05:49:43;;;;;;;11.32;5.40;;;12.40;91.70;;;;;;5319423;26;20076;-75
2024/04/08 05:52:09;;;;;;;11.50;5.10;;;12.40;91.50;;;;;;5318646;26;20012;-75
2024/04/08 05:54:35;;;;;;;12.18;5.28;;;12.50;91.50;;;;;;5337566;26;20049;-75
2024/04/08 05:57:01;;;;;;;14.70;5.72;;;12.60;91.40;;;;;;5344785;26;20005;-75
2024/04/08 05:59:28;;;;;;;11.02;5.82;;;12.60;91.30;;;;;;5334963;26;20009;-75
2024/04/08 06:01:54;;;;;;;12.77;5.88;;;12.60;91.30;;;;;;5344648;26;20013;-75
2024/04/08 06:04:19;;;;;;;11.80;5.80;;;12.60;91.10;;;;;;5334002;26;20005;-75
2024/04/08 06:06:46;;;;;;;14.23;6.20;;;12.70;91.10;;;;;;5347009;26;20016;-75
2024/04/08 06:09:12;;;;;;;11.95;6.15;;;12.80;91.10;;;;;;5344005;26;20005;-75
2024/04/08 06:11:38;;;;;;;12.07;5.68;;;12.80;91.00;;;;;;5344521;26;20004;-75
2024/04/08 06:14:04;;;;;;;13.40;5.10;;;13.00;90.90;;;;;;5345640;26;20012;-75
2024/04/08 06:16:29;;;;;;;11.52;5.70;;;13.00;90.80;;;;;;5330857;26;20057;-75
2024/04/08 06:18:55;;;;;;;11.13;5.00;;;13.10;90.60;;;;;;5336579;26;20005;-75
2024/04/08 06:21:20;;;;;;;10.60;5.60;;;13.10;90.20;;;;;;5345748;26;20008;-76
2024/04/08 06:23:47;;;;;;;14.68;5.70;;;13.10;90.30;;;;;;5343191;26;20019;-76
2024/04/08 06:26:14;;;;;;;14.65;6.80;;;13.30;90.20;;;;;;5345233;26;20008;-75
2024/04/08 06:28:40;;;;;;;14.40;5.78;;;13.30;90.00;;;;;;5333981;26;19998;-75
2024/04/08 06:31:05;;;;;;;21.73;5.82;;;13.30;89.90;;;;;;5337165;26;21007;-77
2024/04/08 06:33:32;;;;;;;12.70;5.20;;;13.30;89.80;;;;;;5326394;26;20498;-76
2024/04/08 06:35:58;;;;;;;13.55;5.30;;;13.50;89.80;;;;;;5337123;26;20005;-75
2024/04/08 06:38:23;;;;;;;10.80;4.95;;;13.50;89.30;;;;;;5302534;26;20012;-76
2024/04/08 06:40:49;;;;;;;11.57;5.18;;;13.60;89.40;;;;;;5301295;26;20017;-76
2024/04/08 06:43:15;;;;;;;10.93;4.78;;;13.80;89.10;;;;;;5293564;26;20012;-76
2024/04/08 06:45:40;;;;;;;11.98;5.68;;;13.80;88.80;;;;;;5302681;26;20006;-75
2024/04/08 06:48:06;;;;;;;11.85;5.93;;;13.90;88.50;;;;;;5296488;26;20633;-75
2024/04/08 06:50:32;;;;;;;10.27;4.30;;;14.00;88.30;;;;;;5328688;26;19993;-74
2024/04/08 06:52:57;;;;;;;10.35;4.80;;;14.00;88.10;;;;;;5326806;26;20323;-74
2024/04/08 06:55:24;;;;;;;11.75;4.97;;;14.00;87.90;;;;;;5314682;26;20084;-74
2024/04/08 06:57:50;;;;;;;10.43;4.57;;;14.10;87.80;;;;;;5326204;26;20012;-74
2024/04/08 07:00:17;;;;;;;12.18;4.07;;;14.10;88.10;;;;;;5323231;26;20272;-74
2024/04/08 07:02:43;;;;;;;11.13;3.90;;;14.10;87.40;;;;;;5327936;26;20017;-73
2024/04/08 07:05:09;;;;;;;10.10;4.28;;;14.20;87.30;;;;;;5322459;26;20074;-73
2024/04/08 07:07:34;;;;;;;10.00;4.03;;;14.30;87.40;;;;;;5350616;26;20026;-72
2024/04/08 07:10:00;;;;;;;10.15;4.28;;;14.40;87.00;;;;;;5318870;26;20345;-72
2024/04/08 07:12:26;;;;;;;11.35;4.40;;;14.40;86.60;;;;;;5316654;26;20082;-73
2024/04/08 07:14:55;;;;;;;11.13;4.60;;;14.30;87.10;;;;;;5284064;26;20006;-73
2024/04/08 07:17:20;;;;;;;9.20;4.38;;;14.40;86.60;;;;;;5311040;26;20013;-74
2024/04/08 07:19:46;;;;;;;10.90;4.47;;;14.30;86.60;;;;;;5325851;26;20535;-73
2024/04/08 07:22:12;;;;;;;11.32;4.43;;;14.40;86.60;;;;;;5322041;26;20727;-73
2024/04/08 07:24:40;;;;;;;8.90;4.00;;;14.40;86.70;;;;;;5321778;26;20015;-72
2024/04/08 07:27:06;;;;;;;11.38;4.00;;;14.40;86.20;;;;;;5325225;26;19997;-72
2024/04/08 07:29:32;;;;;;;11.63;3.65;;;14.50;86.30;;;;;;5327464;26;20132;-72
2024/04/08 07:31:59;;;;;;;10.43;3.85;;;14.60;86.30;;;;;;5322750;26;20468;-75
2024/04/08 07:34:25;;;;;;;15.38;3.60;;;14.60;86.40;;;;;;5325196;26;20087;-74
2024/04/08 07:36:50;;;;;;;10.13;4.22;;;14.60;86.10;;;;;;5326120;26;20406;-75
2024/04/08 07:39:16;;;;;;;16.95;3.80;;;14.60;86.00;;;;;;5314175;26;20355;-74
2024/04/08 07:41:42;;;;;;;9.73;3.58;;;14.60;85.80;;;;;;5323404;26;20012;-74
2024/04/08 07:44:08;;;;;;;8.98;3.90;;;14.50;86.00;;;;;;5313741;26;20005;-74
2024/04/08 07:46:34;;;;;;;8.88;3.50;;;14.50;86.10;;;;;;5303924;26;20573;-75
2024/04/08 07:48:59;;;;;;;9.98;4.20;;;14.60;86.30;;;;;;5304330;26;20393;-74
2024/04/08 07:51:25;;;;;;;7.38;3.38;;;14.60;86.00;;;;;;5310479;26;20012;-74
2024/04/08 07:53:51;;;;;;;9.13;3.50;;;14.60;86.10;;;;;;5328005;26;20005;-73
2024/04/08 07:56:16;;;;;;;7.70;3.90;;;14.70;85.90;;;;;;5311137;26;20006;-73
2024/04/08 07:58:42;;;;;;;8.05;3.42;;;14.70;85.90;;;;;;5307553;26;20002;-73
2024/04/08 08:01:08;;;;;;;9.10;4.07;;;14.80;85.30;;;;;;5284205;26;20038;-74
2024/04/08 08:03:34;;;;;;;9.40;3.30;;;14.90;85.30;;;;;;5279462;26;20001;-74
2024/04/08 08:06:00;;;;;;;10.40;3.17;;;15.10;85.20;;;;;;5282906;26;20081;-74
2024/04/08 08:08:26;;;;;;;9.50;3.97;;;15.20;84.50;;;;;;5278104;26;20045;-73
2024/04/08 08:10:52;;;;;;;10.70;3.80;;;15.20;84.10;;;;;;5326180;26;20051;-73
2024/04/08 08:13:18;;;;;;;10.63;3.50;;;15.30;84.10;;;;;;5325727;26;20132;-72
2024/04/08 08:15:56;;;;;;;9.00;3.80;;;15.30;83.80;;;;;;5321998;26;19997;-72
2024/04/08 08:18:22;;;;;;;8.52;3.88;;;15.40;83.70;;;;;;5299569;26;20335;-72
2024/04/08 08:20:47;;;;;;;8.07;3.20;;;15.40;83.50;;;;;;5301439;26;20001;-73
2024/04/08 08:23:13;;;;;;;6.88;3.10;;;15.40;83.30;;;;;;5321234;26;20512;-73
2024/04/08 08:25:39;;;;;;;5.55;2.70;;;15.50;83.00;;;;;;5315444;26;20484;-73
2024/04/08 08:28:06;;;;;;;7.95;3.50;;;15.60;83.00;;;;;;5311208;26;20012;-73
2024/04/08 08:30:35;;;;;;;9.55;3.03;;;15.60;82.90;;;;;;5326879;26;20001;-73
2024/04/08 08:33:01;;;;;;;5.93;2.75;;;15.60;82.50;;;;;;5291836;26;20461;-74
2024/04/08 08:35:27;;;;;;;8.23;3.28;;;15.60;83.10;;;;;;5285594;26;20010;-73
2024/04/08 08:37:52;;;;;;;7.53;3.63;;;15.70;82.50;;;;;;5280270;26;21571;-74
2024/04/08 08:40:20;;;;;;;8.07;3.20;;;15.80;82.50;;;;;;5286920;26;20002;-74
2024/04/08 08:42:50;;;;;;;6.85;2.83;;;16.00;82.00;;;;;;5280568;26;20009;-73
2024/04/08 08:45:17;;;;;;;9.13;2.95;;;16.10;81.60;;;;;;5316960;26;20005;-73
2024/04/08 08:47:43;;;;;;;7.57;2.92;;;16.10;81.00;;;;;;5321745;26;20026;-73
2024/04/08 08:50:10;;;;;;;8.82;3.38;;;16.30;80.80;;;;;;5324988;26;20205;-75
2024/04/08 08:52:36;;;;;;;6.70;2.72;;;16.20;80.50;;;;;;5328481;26;19997;-73
2024/04/08 08:55:04;;;;;;;6.25;2.47;;;16.10;80.50;;;;;;5320254;26;20016;-74
2024/04/08 08:57:30;;;;;;;7.40;2.92;;;15.90;80.70;;;;;;5328220;26;20091;-74
2024/04/08 08:59:58;;;;;;;6.18;2.60;;;15.80;81.10;;;;;;5322291;26;20012;-73
2024/04/08 09:02:25;;;;;;;9.63;2.90;;;15.80;81.40;;;;;;5325509;26;20008;-73
2024/04/08 09:04:52;;;;;;;7.47;2.60;;;15.90;81.10;;;;;;5327745;26;20007;-73
2024/04/08 09:07:18;;;;;;;6.97;3.10;;;16.00;81.10;;;;;;5324080;26;19997;-73
2024/04/08 09:09:54;;;;;;;10.18;3.13;;;16.10;81.20;;;;;;5309032;26;20011;-74
2024/04/08 09:12:20;;;;;;;8.05;3.15;;;16.30;80.70;;;;;;5319150;26;20016;-73
2024/04/08 09:14:51;;;;;;;8.50;3.38;;;16.50;79.90;;;;;;5321540;26;20025;-73
2024/04/08 09:17:18;;;;;;;9.00;3.22;;;16.60;79.40;;;;;;5318534;26;20012;-73
2024/04/08 09:19:44;;;;;;;8.75;2.83;;;16.70;79.20;;;;;;5299244;26;20408;-76
2024/04/08 09:22:10;;;;;;;7.22;3.00;;;16.70;78.00;;;;;;5300741;26;20004;-74
2024/04/08 09:24:35;;;;;;;9.35;2.75;;;16.90;77.60;;;;;;5312416;26;20012;-72
2024/04/08 09:27:01;;;;;;;8.57;3.13;;;16.90;78.00;;;;;;5340740;26;20011;-73
2024/04/08 09:29:27;;;;;;;7.72;3.58;;;17.00;77.60;;;;;;5302796;26;20009;-74
2024/04/08 09:31:54;;;;;;;8.30;2.90;;;17.00;77.00;;;;;;5307514;26;20430;-73
2024/04/08 09:34:19;;;;;;;6.13;2.75;;;17.00;77.50;;;;;;5299495;26;21021;-74
2024/04/08 09:36:46;;;;;;;8.27;3.10;;;17.10;78.00;;;;;;5310495;26;20012;-72
2024/04/08 09:39:12;;;;;;;7.88;3.25;;;17.20;77.30;;;;;;5324530;26;20001;-73
2024/04/08 09:41:39;;;;;;;7.78;3.08;;;17.20;77.20;;;;;;5313858;26;20147;-73
2024/04/08 09:44:12;;;;;;;9.25;3.22;;;17.20;77.60;;;;;;5304423;26;20071;-74
2024/04/08 09:46:40;;;;;;;7.55;2.78;;;17.20;76.50;;;;;;5309230;26;20516;-73
2024/04/08 09:49:10;;;;;;;8.68;3.25;;;17.60;77.50;;;;;;5307580;26;20000;-73
2024/04/08 09:51:42;;;;;;;9.77;3.15;;;18.00;75.80;;;;;;5304452;26;20000;-73
2024/04/08 09:54:11;;;;;;;7.20;3.70;;;18.50;75.20;;;;;;5306315;26;20005;-73
2024/04/08 09:56:39;;;;;;;10.45;2.90;;;18.70;73.10;;;;;;5300519;26;20121;-74
2024/04/08 09:59:10;;;;;;;7.53;3.40;;;18.90;72.80;;;;;;5298981;26;20295;-73
2024/04/08 10:01:39;;;;;;;10.13;3.83;;;18.90;71.60;;;;;;5305534;26;20486;-73
2024/04/08 10:04:14;;;;;;;9.48;3.42;;;19.00;72.50;;;;;;5279575;26;20001;-73
2024/04/08 10:06:42;;;;;;;10.52;4.00;;;19.10;71.70;;;;;;5270847;26;19998;-72
2024/04/08 10:09:12;;;;;;;9.10;3.50;;;19.10;71.90;;;;;;5272352;26;22564;-74
2024/04/08 10:11:38;;;;;;;8.50;3.70;;;19.40;72.00;;;;;;5268737;26;20005;-74
2024/04/08 10:14:14;;;;;;;8.25;4.00;;;19.60;71.10;;;;;;5277246;26;20001;-73
2024/04/08 10:16:40;;;;;;;7.65;2.83;;;19.60;70.90;;;;;;5305444;26;19996;-74
2024/04/08 10:19:07;;;;;;;9.02;3.35;;;19.60;70.80;;;;;;5307184;26;20009;-73
2024/04/08 10:21:33;;;;;;;9.75;3.60;;;19.20;71.30;;;;;;5303278;26;20224;-73
2024/04/08 10:23:59;;;;;;;9.48;3.58;;;19.20;71.50;;;;;;5306357;26;19998;-74
2024/04/08 10:26:28;;;;;;;8.52;3.63;;;19.20;71.40;;;;;;5304262;26;20068;-73
2024/04/08 10:28:55;;;;;;;7.40;3.90;;;19.00;72.00;;;;;;5307964;26;20044;-73
2024/04/08 10:31:27;;;;;;;8.48;3.80;;;18.90;72.40;;;;;;5300557;26;20562;-73
2024/04/08 10:33:52;;;;;;;8.30;3.60;;;18.80;72.50;;;;;;5285204;26;20059;-73
2024/04/08 10:36:19;;;;;;;7.93;3.92;;;18.80;73.50;;;;;;5272259;26;20897;-73
2024/04/08 10:38:45;;;;;;;8.88;4.15;;;18.70;73.20;;;;;;5289841;26;20375;-73
2024/04/08 10:41:11;;;;;;;7.97;3.92;;;18.60;74.10;;;;;;5301445;26;19994;-73
2024/04/08 10:43:37;;;;;;;9.60;4.18;;;18.50;73.90;;;;;;5281671;26;20001;-75
2024/04/08 10:46:10;;;;;;;6.93;3.55;;;18.40;74.30;;;;;;5304784;26;19997;-75
2024/04/08 10:48:39;;;;;;;6.78;3.33;;;18.40;74.70;;;;;;5302846;26;20012;-75
2024/04/08 10:51:07;;;;;;;7.00;2.95;;;18.50;74.50;;;;;;5310464;26;20019;-74
2024/04/08 10:53:32;;;;;;;7.47;3.05;;;18.60;74.60;;;;;;5314822;26;20013;-75
2024/04/08 10:56:00;;;;;;;4.80;2.35;;;18.70;74.10;;;;;;5308622;26;20001;-74
2024/04/08 10:58:25;;;;;;;5.40;2.40;;;18.70;73.60;;;;;;5303517;26;20285;-74
2024/04/08 11:00:51;;;;;;;8.10;2.42;;;18.90;73.00;;;;;;5301491;26;20767;-74
2024/04/08 11:03:18;;;;;;;5.63;2.47;;;18.90;72.70;;;;;;5309351;26;20009;-75
2024/04/08 11:05:44;;;;;;;7.22;2.13;;;18.90;72.20;;;;;;5301818;26;20504;-74
2024/04/08 11:08:12;;;;;;;4.57;2.00;;;18.90;73.00;;;;;;5314294;26;20005;-74
2024/04/08 11:10:42;;;;;;;6.00;2.42;;;18.70;72.50;;;;;;5321942;26;20013;-75
2024/04/08 11:13:09;;;;;;;6.68;2.50;;;18.40;73.40;;;;;;5315941;26;19997;-74
2024/04/08 11:15:34;;;;;;;8.05;2.70;;;18.40;74.20;;;;;;5326921;26;20059;-74
2024/04/08 11:18:00;;;;;;;7.07;2.80;;;18.30;74.80;;;;;;5313940;26;20337;-75
2024/04/08 11:20:28;;;;;;;5.30;2.40;;;18.40;74.90;;;;;;5326145;26;20072;-75
2024/04/08 11:22:54;;;;;;;6.18;2.58;;;18.60;75.00;;;;;;5328709;26;20001;-74
2024/04/08 11:25:20;;;;;;;6.65;2.75;;;18.80;74.30;;;;;;5325927;26;20001;-74
2024/04/08 11:27:46;;;;;;;7.72;2.72;;;19.20;74.20;;;;;;5330765;26;20579;-74
2024/04/08 11:30:16;;;;;;;4.70;2.03;;;19.20;72.70;;;;;;5322726;26;20468;-74
2024/04/08 11:32:42;;;;;;;6.28;2.42;;;19.40;72.90;;;;;;5320668;26;20003;-74
2024/04/08 11:35:08;;;;;;;5.70;2.33;;;19.60;72.40;;;;;;5319673;26;20023;-74
2024/04/08 11:37:34;;;;;;;4.63;2.20;;;19.90;71.80;;;;;;5322882;26;20952;-75
2024/04/08 11:40:04;;;;;;;5.90;1.98;;;19.70;71.30;;;;;;5329276;26;19993;-75
2024/04/08 11:42:30;;;;;;;3.83;2.13;;;19.70;72.30;;;;;;5331799;26;20011;-74
2024/04/08 11:45:03;;;;;;;6.80;2.50;;;20.10;72.10;;;;;;5323924;26;20000;-74
2024/04/08 11:47:29;;;;;;;4.50;2.20;;;20.60;70.40;;;;;;5321112;26;20461;-75
2024/04/08 11:49:55;;;;;;;4.72;2.20;;;20.60;69.80;;;;;;5327287;26;19997;-73
2024/04/08 11:52:21;;;;;;;3.53;1.92;;;21.00;70.00;;;;;;5326946;26;20015;-74
2024/04/08 11:54:47;;;;;;;6.80;2.55;;;21.10;68.40;;;;;;5329441;26;20029;-74
2024/04/08 11:57:14;;;;;;;4.78;2.22;;;21.40;68.40;;;;;;5339124;26;20478;-73
2024/04/08 11:59:40;;;;;;;4.63;2.00;;;21.30;69.10;;;;;;5327168;26;20005;-75
2024/04/08 12:02:05;;;;;;;3.15;2.00;;;21.50;68.70;;;;;;5329381;26;20412;-74
2024/04/08 12:04:32;;;;;;;5.35;2.20;;;21.40;68.40;;;;;;5327741;26;20008;-74
2024/04/08 12:06:58;;;;;;;4.32;2.22;;;21.40;68.40;;;;;;5319269;26;20497;-73
2024/04/08 12:09:24;;;;;;;4.10;2.10;;;21.50;69.90;;;;;;5331430;26;20066;-75
2024/04/08 12:11:50;;;;;;;3.08;1.60;;;21.70;68.90;;;;;;5328023;26;19997;-75
2024/04/08 12:14:16;;;;;;;3.78;1.83;;;21.80;68.90;;;;;;5331109;26;20076;-75
2024/04/08 12:16:42;;;;;;;2.92;1.50;;;22.00;67.30;;;;;;5325707;26;20058;-75
2024/04/08 12:19:09;;;;;;;3.17;1.52;;;21.80;68.00;;;;;;5313053;26;20345;-76
2024/04/08 12:21:37;;;;;;;3.92;1.50;;;22.00;68.50;;;;;;5328968;26;20079;-75
2024/04/08 12:24:03;;;;;;;3.10;1.70;;;21.80;67.80;;;;;;5321079;26;20016;-75
2024/04/08 12:26:29;;;;;;;4.15;1.95;;;21.60;68.10;;;;;;5327974;26;20013;-75
2024/04/08 12:28:58;;;;;;;3.33;1.80;;;21.00;69.40;;;;;;5318510;26;20678;-75
2024/04/08 12:31:23;;;;;;;5.38;2.05;;;20.70;70.20;;;;;;5323047;26;20013;-75
2024/04/08 12:33:49;;;;;;;3.80;1.95;;;20.60;71.40;;;;;;5330387;26;20506;-75
2024/04/08 12:36:15;;;;;;;4.30;1.90;;;20.70;70.60;;;;;;5331487;26;20021;-75
2024/04/08 12:38:41;;;;;;;3.95;2.10;;;21.00;70.70;;;;;;5318038;26;20001;-75
2024/04/08 12:41:06;;;;;;;4.35;1.90;;;21.10;70.70;;;;;;5315414;26;20350;-73